Belmiro Braga, Brazil
Current Conditions -  °F | °C
As of 12:00 PM on Thursday 23 Oct 2014 (Local Time) from SBGL Reporting Station
Few Clouds Few Clouds  
Wind Chill: 77°   Ceiling: Unl
Heat Index: 79°   Visibility: 6mi
Dew Point: 57°   Wind: 6mph
Humidity: 50%   Direction: 170°S
Pressure: 30.12"   Gusts: NA
Location:  21.95°S, 43.41°W
Report Text: SBGL 231400Z 17005KT 9999 FEW030 25/14 Q1020
Loading
Personal Weather Stations






























Interactive Weather Map
Tropical Storm Tracking
New forecast layout! Learn more

10-Day Weather Forecast

Advertisements
Track Severe Weather on mobile